createdAt,value
2023-05-11T00:02:12.817Z,13.92
2023-05-11T00:04:40.933Z,13.66
2023-05-11T00:07:08.524Z,13.99
2023-05-11T00:09:36.126Z,13.77
2023-05-11T00:12:04.675Z,13.68
2023-05-11T00:14:32.355Z,13.83
2023-05-11T00:17:00.052Z,13.78
2023-05-11T00:19:28.063Z,13.78
2023-05-11T00:21:55.795Z,13.60
2023-05-11T00:24:23.407Z,13.69
2023-05-11T00:26:51.564Z,13.82
2023-05-11T00:29:19.307Z,13.75
2023-05-11T00:31:47.386Z,13.85
2023-05-11T00:34:16.257Z,13.79
2023-05-11T00:36:44.286Z,13.74
2023-05-11T00:39:12.237Z,13.60
2023-05-11T00:41:40.210Z,13.45
2023-05-11T00:44:07.903Z,13.40
2023-05-11T00:46:35.625Z,13.50
2023-05-11T00:49:03.600Z,13.40
2023-05-11T00:51:32.329Z,13.25
2023-05-11T00:54:00.036Z,13.28
2023-05-11T00:56:28.478Z,13.21
2023-05-11T00:58:56.155Z,13.26
2023-05-11T01:01:23.858Z,13.21
2023-05-11T01:03:52.062Z,13.26
2023-05-11T01:06:44.013Z,13.12
2023-05-11T01:09:17.634Z,13.23
2023-05-11T01:11:51.778Z,13.16
2023-05-11T01:14:41.560Z,13.19
2023-05-11T01:17:15.003Z,13.22
2023-05-11T01:19:53.485Z,13.25
2023-05-11T01:22:24.708Z,13.21
2023-05-11T01:25:11.397Z,13.17
2023-05-11T01:28:04.166Z,13.22
2023-05-11T01:30:50.402Z,13.17
2023-05-11T01:33:21.985Z,13.29
2023-05-11T01:35:53.333Z,13.26
2023-05-11T01:38:22.516Z,13.21
2023-05-11T01:40:54.916Z,13.15
2023-05-11T01:43:26.037Z,13.39
2023-05-11T01:45:56.123Z,13.30
2023-05-11T01:48:24.767Z,13.19
2023-05-11T01:50:53.009Z,13.24
2023-05-11T01:53:21.507Z,13.26
2023-05-11T01:55:49.617Z,13.15
2023-05-11T01:58:18.175Z,13.16
2023-05-11T02:00:46.411Z,13.17
2023-05-11T02:03:15.547Z,13.12
2023-05-11T02:05:44.096Z,13.20
2023-05-11T02:08:12.264Z,13.27
2023-05-11T02:10:41.033Z,13.17
2023-05-11T02:13:10.516Z,13.27
2023-05-11T02:15:41.103Z,13.16
2023-05-11T02:18:14.978Z,13.23
2023-05-11T02:20:44.174Z,13.16
2023-05-11T02:23:12.918Z,13.16
2023-05-11T02:25:41.145Z,13.06
2023-05-11T02:28:09.000Z,13.02
2023-05-11T02:30:43.081Z,12.99
2023-05-11T02:33:27.332Z,13.00
2023-05-11T02:35:56.272Z,13.09
2023-05-11T02:38:30.344Z,13.00
2023-05-11T02:41:01.501Z,13.02
2023-05-11T02:43:33.829Z,13.01
2023-05-11T02:46:05.333Z,12.93
2023-05-11T02:48:38.748Z,12.96
2023-05-11T02:51:08.525Z,13.00
2023-05-11T02:53:37.776Z,12.90
2023-05-11T02:56:05.937Z,12.90
2023-05-11T02:58:34.729Z,12.99
2023-05-11T03:01:03.358Z,12.94
2023-05-11T03:03:31.381Z,12.84
2023-05-11T03:05:59.438Z,12.80
2023-05-11T03:08:28.727Z,12.84
2023-05-11T03:10:58.002Z,12.78
2023-05-11T03:13:26.089Z,12.60
2023-05-11T03:15:54.737Z,12.55
2023-05-11T03:18:24.134Z,12.49
2023-05-11T03:20:52.159Z,12.31
2023-05-11T03:23:20.022Z,12.30
2023-05-11T03:25:48.111Z,12.28
2023-05-11T03:28:16.290Z,12.14
2023-05-11T03:30:48.177Z,12.08
2023-05-11T03:33:16.790Z,12.15
2023-05-11T03:35:45.206Z,12.22
2023-05-11T03:38:15.474Z,12.04
2023-05-11T03:40:44.573Z,11.99
2023-05-11T03:43:15.249Z,12.04
2023-05-11T03:45:43.808Z,12.06
2023-05-11T03:48:12.180Z,11.72
2023-05-11T03:50:40.546Z,11.81
2023-05-11T03:53:08.565Z,11.73
2023-05-11T03:55:36.221Z,11.90
2023-05-11T03:58:10.428Z,11.91
2023-05-11T04:00:41.967Z,11.81
2023-05-11T04:03:10.200Z,11.97
2023-05-11T04:05:38.995Z,11.83
2023-05-11T04:08:07.360Z,11.82
2023-05-11T04:10:35.458Z,11.85
2023-05-11T04:13:03.048Z,11.77
2023-05-11T04:15:30.771Z,12.10
2023-05-11T04:17:58.857Z,11.96
2023-05-11T04:20:26.579Z,11.97
2023-05-11T04:22:54.185Z,12.03
2023-05-11T04:25:22.094Z,12.08
2023-05-11T04:27:49.867Z,11.94
2023-05-11T04:30:17.962Z,11.99
2023-05-11T04:32:46.252Z,12.10
2023-05-11T04:35:13.945Z,12.22
2023-05-11T04:37:41.573Z,12.05
2023-05-11T04:40:11.464Z,12.13
2023-05-11T04:42:39.256Z,12.15
2023-05-11T04:45:08.239Z,12.31
2023-05-11T04:47:36.149Z,12.26
2023-05-11T04:50:04.139Z,12.47
2023-05-11T04:52:32.950Z,12.35
2023-05-11T04:55:00.841Z,12.43
2023-05-11T04:57:28.535Z,12.33
2023-05-11T04:59:56.426Z,12.49
2023-05-11T05:02:24.460Z,12.71
2023-05-11T05:04:52.048Z,12.71
2023-05-11T05:07:19.654Z,12.69
2023-05-11T05:09:47.833Z,12.72
2023-05-11T05:12:15.681Z,12.78
2023-05-11T05:14:43.927Z,12.86
2023-05-11T05:17:11.915Z,12.68
2023-05-11T05:19:40.642Z,12.91
2023-05-11T05:22:08.330Z,12.69
2023-05-11T05:24:37.245Z,12.75
2023-05-11T05:27:05.090Z,12.70
2023-05-11T05:29:32.810Z,12.70
2023-05-11T05:32:00.750Z,12.66
2023-05-11T05:34:28.955Z,12.94
2023-05-11T05:36:56.652Z,13.12
2023-05-11T05:39:24.590Z,13.02
2023-05-11T05:41:52.534Z,13.00
2023-05-11T05:44:20.513Z,12.95
2023-05-11T05:46:48.770Z,13.08
2023-05-11T05:49:16.484Z,13.04
2023-05-11T05:51:45.122Z,13.03
2023-05-11T05:54:13.472Z,13.18
2023-05-11T05:56:41.246Z,13.29
2023-05-11T05:59:09.195Z,13.35
2023-05-11T06:01:39.414Z,13.44
2023-05-11T06:04:07.704Z,13.51
2023-05-11T06:06:35.510Z,13.44
2023-05-11T06:09:03.759Z,13.56
2023-05-11T06:11:31.701Z,13.80
2023-05-11T06:13:59.448Z,13.92
2023-05-11T06:16:27.242Z,13.83
2023-05-11T06:18:55.282Z,13.68
2023-05-11T06:21:23.169Z,13.95
2023-05-11T06:23:50.874Z,13.89
2023-05-11T06:26:20.141Z,14.17
2023-05-11T06:28:48.252Z,14.18
2023-05-11T06:31:16.104Z,14.25
2023-05-11T06:33:46.018Z,14.26
2023-05-11T06:36:16.287Z,14.13
2023-05-11T06:38:45.670Z,14.29
2023-05-11T06:41:13.363Z,14.51
2023-05-11T06:43:41.002Z,14.51
2023-05-11T06:46:14.809Z,14.57
2023-05-11T06:48:43.516Z,14.50
2023-05-11T06:51:11.865Z,14.77
2023-05-11T06:53:39.627Z,14.97
2023-05-11T06:56:07.204Z,14.96
2023-05-11T06:58:35.613Z,15.10
2023-05-11T07:01:03.366Z,15.29
2023-05-11T07:03:31.347Z,15.29
2023-05-11T07:05:59.294Z,15.33
2023-05-11T07:08:27.002Z,15.46
2023-05-11T07:10:54.646Z,15.61
2023-05-11T07:13:22.655Z,15.63
2023-05-11T07:15:50.320Z,15.64
2023-05-11T07:18:18.013Z,15.81
2023-05-11T07:20:45.993Z,15.96
2023-05-11T07:23:13.664Z,16.14
2023-05-11T07:25:41.313Z,16.28
2023-05-11T07:28:09.243Z,16.30
2023-05-11T07:30:36.890Z,16.58
2023-05-11T07:33:04.607Z,16.57
2023-05-11T07:35:32.634Z,16.69
2023-05-11T07:38:00.486Z,16.77
2023-05-11T07:40:28.188Z,16.83
2023-05-11T07:42:56.216Z,16.86
2023-05-11T07:45:23.824Z,17.07
2023-05-11T07:47:51.417Z,17.08
2023-05-11T07:50:19.720Z,17.03
2023-05-11T07:52:48.072Z,17.14
2023-05-11T07:55:16.199Z,17.19
2023-05-11T07:57:44.171Z,17.28
2023-05-11T08:00:12.345Z,17.17
2023-05-11T08:02:40.697Z,17.41
2023-05-11T08:05:08.812Z,17.75
2023-05-11T08:07:37.828Z,17.65
2023-05-11T08:10:07.495Z,17.63
2023-05-11T08:12:35.915Z,17.86
2023-05-11T08:15:04.380Z,17.90
2023-05-11T08:17:32.529Z,18.09
2023-05-11T08:20:00.207Z,18.04
2023-05-11T08:22:27.936Z,18.10
2023-05-11T08:24:55.844Z,18.38
2023-05-11T08:27:23.446Z,18.54
2023-05-11T08:29:51.219Z,18.28
2023-05-11T08:32:19.295Z,18.69
2023-05-11T08:34:47.241Z,18.80
2023-05-11T08:37:15.161Z,18.88
2023-05-11T08:39:47.709Z,19.03
2023-05-11T08:42:16.544Z,19.19
2023-05-11T08:44:44.801Z,19.16
2023-05-11T08:49:43.164Z,19.40
2023-05-11T08:52:11.639Z,19.61
2023-05-11T08:54:39.260Z,19.62
2023-05-11T08:57:06.964Z,19.67
2023-05-11T08:59:35.060Z,20.05
2023-05-11T09:02:03.719Z,20.23
2023-05-11T09:04:31.556Z,20.54
2023-05-11T09:06:59.616Z,20.63
2023-05-11T09:09:27.342Z,20.73
2023-05-11T09:11:55.252Z,20.51
2023-05-11T09:16:53.807Z,20.70
2023-05-11T09:19:21.354Z,20.89
2023-05-11T09:21:52.512Z,21.17
2023-05-11T09:24:20.770Z,20.95
2023-05-11T09:26:49.051Z,21.26
2023-05-11T09:29:20.010Z,21.28
2023-05-11T09:31:48.299Z,21.64
2023-05-11T09:34:21.491Z,21.55
2023-05-11T09:36:53.896Z,21.53
2023-05-11T09:42:18.082Z,20.99
2023-05-11T09:44:47.545Z,20.76
2023-05-11T09:47:16.632Z,20.48
2023-05-11T09:49:45.843Z,20.76
2023-05-11T09:52:15.587Z,20.52
2023-05-11T09:54:48.520Z,20.91
2023-05-11T09:57:30.259Z,21.17
2023-05-11T09:59:59.553Z,21.39
2023-05-11T10:02:29.595Z,21.47
2023-05-11T10:04:59.630Z,21.30
2023-05-11T10:07:34.934Z,21.48
2023-05-11T10:10:04.854Z,21.47
2023-05-11T10:12:33.180Z,20.93
2023-05-11T10:15:10.987Z,21.02
2023-05-11T10:17:39.049Z,21.39
2023-05-11T10:20:07.333Z,21.51
2023-05-11T10:22:35.585Z,21.71
2023-05-11T10:25:03.800Z,21.92
2023-05-11T10:27:31.846Z,21.95
2023-05-11T10:29:59.601Z,22.00
2023-05-11T10:32:27.837Z,21.79
2023-05-11T10:34:56.559Z,21.32
2023-05-11T10:37:24.148Z,21.28
2023-05-11T10:39:52.235Z,21.49
2023-05-11T10:42:29.721Z,21.63
2023-05-11T10:45:18.909Z,21.70
2023-05-11T10:48:05.467Z,21.95
2023-05-11T10:50:55.137Z,22.20
2023-05-11T10:53:34.968Z,22.28
2023-05-11T10:56:24.715Z,22.26
2023-05-11T10:59:17.373Z,22.34
2023-05-11T11:01:45.435Z,21.84
2023-05-11T11:04:13.635Z,21.52
2023-05-11T11:06:42.506Z,22.63
2023-05-11T11:09:15.274Z,22.50
2023-05-11T11:11:47.805Z,22.79
2023-05-11T11:14:17.235Z,22.39
2023-05-11T11:17:16.021Z,22.86
2023-05-11T11:19:44.099Z,22.70
2023-05-11T11:22:36.404Z,22.68
2023-05-11T11:25:15.120Z,23.67
2023-05-11T11:27:45.380Z,23.81
2023-05-11T11:30:23.625Z,23.52
2023-05-11T11:32:56.146Z,23.79
2023-05-11T11:35:39.383Z,24.24
2023-05-11T11:38:11.464Z,24.56
2023-05-11T11:40:51.927Z,24.46
2023-05-11T11:43:20.722Z,24.24
2023-05-11T11:45:50.855Z,24.04
2023-05-11T11:48:31.670Z,23.87
2023-05-11T11:51:13.383Z,23.83
2023-05-11T11:53:40.941Z,22.88
2023-05-11T11:56:28.794Z,23.80
2023-05-11T11:58:57.003Z,23.87
2023-05-11T12:01:30.346Z,24.34
2023-05-11T12:04:04.622Z,24.40
2023-05-11T12:06:39.891Z,23.43
2023-05-11T12:09:08.246Z,23.29
2023-05-11T12:11:37.560Z,22.72
2023-05-11T12:14:06.218Z,22.85
2023-05-11T12:16:34.195Z,23.28
2023-05-11T12:19:02.385Z,23.21
2023-05-11T12:21:31.066Z,22.86
2023-05-11T12:24:03.372Z,21.72
2023-05-11T12:26:32.164Z,22.07
2023-05-11T12:29:14.013Z,22.07
2023-05-11T12:31:44.009Z,21.65
2023-05-11T12:34:16.206Z,22.53
2023-05-11T12:36:47.815Z,23.27
2023-05-11T12:39:19.430Z,23.32
2023-05-11T12:41:48.419Z,23.47
2023-05-11T12:44:17.444Z,24.08
2023-05-11T12:46:46.706Z,24.32
2023-05-11T12:52:01.732Z,24.64
2023-05-11T12:54:39.082Z,24.62
2023-05-11T12:57:08.461Z,24.51
2023-05-11T12:59:39.137Z,23.97
2023-05-11T13:02:13.219Z,24.11
2023-05-11T13:04:41.839Z,24.19
2023-05-11T13:07:10.214Z,24.39
2023-05-11T13:09:38.547Z,24.31
2023-05-11T13:12:09.706Z,24.11
2023-05-11T13:14:38.058Z,24.19
2023-05-11T13:17:05.900Z,24.03
2023-05-11T13:19:33.683Z,24.18
2023-05-11T13:22:01.647Z,24.25
2023-05-11T13:24:29.398Z,23.93
2023-05-11T13:26:58.281Z,24.12
2023-05-11T13:29:26.289Z,23.99
2023-05-11T13:31:54.228Z,23.96
2023-05-11T13:34:22.016Z,24.21
2023-05-11T13:36:51.922Z,23.90
2023-05-11T13:39:20.381Z,24.15
2023-05-11T13:41:48.277Z,24.02
2023-05-11T13:44:16.270Z,23.85
2023-05-11T13:46:43.904Z,23.91
2023-05-11T13:49:11.529Z,23.97
2023-05-11T13:51:39.465Z,24.11
2023-05-11T13:54:07.143Z,24.64
2023-05-11T13:56:34.825Z,23.89
2023-05-11T13:59:02.798Z,23.80
2023-05-11T14:01:30.452Z,23.80
2023-05-11T14:03:58.769Z,23.47
2023-05-11T14:06:26.365Z,23.56
2023-05-11T14:08:54.138Z,23.42
2023-05-11T14:11:22.205Z,23.06
2023-05-11T14:13:51.136Z,23.18
2023-05-11T14:16:19.628Z,23.10
2023-05-11T14:18:48.076Z,22.86
2023-05-11T14:21:16.490Z,23.21
2023-05-11T14:23:57.645Z,22.84
2023-05-11T14:26:32.339Z,23.25
2023-05-11T14:29:00.143Z,23.20
2023-05-11T14:31:28.149Z,23.16
2023-05-11T14:33:56.093Z,22.64
2023-05-11T14:36:23.869Z,22.13
2023-05-11T14:38:51.509Z,22.62
2023-05-11T14:41:19.518Z,22.12
2023-05-11T14:43:47.393Z,22.29
2023-05-11T14:46:16.166Z,22.79
2023-05-11T14:48:44.104Z,22.62
2023-05-11T14:51:11.688Z,21.88
2023-05-11T14:53:39.418Z,21.34
2023-05-11T14:56:07.534Z,21.83
2023-05-11T14:58:35.344Z,21.80
2023-05-11T15:01:03.192Z,21.70
2023-05-11T15:03:32.252Z,21.84
2023-05-11T15:06:00.369Z,21.82
2023-05-11T15:08:30.532Z,21.75
2023-05-11T15:10:59.353Z,21.49
2023-05-11T15:13:35.207Z,21.10
2023-05-11T15:16:03.168Z,20.77
2023-05-11T15:18:30.928Z,20.99
2023-05-11T15:20:58.596Z,20.82
2023-05-11T15:23:26.633Z,21.04
2023-05-11T15:25:54.234Z,21.18
2023-05-11T15:28:21.962Z,20.98
2023-05-11T15:30:50.226Z,20.82
2023-05-11T15:33:17.930Z,20.16
2023-05-11T15:35:45.599Z,20.31
2023-05-11T15:38:13.632Z,20.01
2023-05-11T15:40:41.204Z,20.08
2023-05-11T15:43:08.820Z,19.64
2023-05-11T15:45:36.801Z,19.71
2023-05-11T15:48:04.948Z,20.04
2023-05-11T15:50:32.608Z,19.96
2023-05-11T15:53:00.553Z,20.23
2023-05-11T15:55:28.343Z,19.85
2023-05-11T15:57:55.879Z,20.13
2023-05-11T16:00:23.824Z,20.05
2023-05-11T16:02:51.858Z,19.68
2023-05-11T16:05:21.300Z,19.58
2023-05-11T16:07:49.115Z,19.62
2023-05-11T16:10:17.332Z,19.60
2023-05-11T16:12:46.065Z,19.32
2023-05-11T16:15:13.674Z,19.41
2023-05-11T16:17:41.627Z,19.30
2023-05-11T16:20:09.521Z,19.26
2023-05-11T16:22:37.432Z,19.44
2023-05-11T16:25:05.893Z,19.36
2023-05-11T16:27:33.509Z,19.22
2023-05-11T16:30:11.174Z,19.31
2023-05-11T16:32:46.155Z,19.31
2023-05-11T16:35:13.770Z,19.19
2023-05-11T16:37:41.675Z,19.25
2023-05-11T16:40:09.806Z,19.37
2023-05-11T16:42:37.459Z,19.23
2023-05-11T16:45:05.438Z,19.54
2023-05-11T16:47:33.308Z,19.33
2023-05-11T16:50:01.012Z,19.25
2023-05-11T16:52:28.661Z,19.53
2023-05-11T16:54:58.860Z,19.35
2023-05-11T16:57:26.804Z,19.06
2023-05-11T16:59:54.377Z,18.99
2023-05-11T17:02:22.307Z,18.86
2023-05-11T17:04:50.128Z,19.11
2023-05-11T17:07:17.806Z,18.89
2023-05-11T17:09:45.774Z,18.74
2023-05-11T17:12:13.443Z,18.55
2023-05-11T17:14:41.145Z,18.60
2023-05-11T17:17:09.068Z,18.00
2023-05-11T17:19:36.661Z,17.59
2023-05-11T17:22:04.473Z,17.55
2023-05-11T17:24:32.522Z,17.17
2023-05-11T17:27:00.439Z,16.96
2023-05-11T17:29:28.049Z,16.91
2023-05-11T17:31:56.089Z,16.99
2023-05-11T17:34:27.253Z,16.80
2023-05-11T17:36:56.692Z,16.84
2023-05-11T17:39:24.377Z,16.99
2023-05-11T17:41:52.009Z,16.74
2023-05-11T17:44:20.046Z,16.64
2023-05-11T17:46:47.973Z,16.61
2023-05-11T17:49:15.782Z,16.55
2023-05-11T17:51:43.690Z,16.51
2023-05-11T17:54:11.399Z,16.24
2023-05-11T17:56:39.096Z,16.28
2023-05-11T17:59:07.079Z,15.96
2023-05-11T18:01:34.867Z,16.01
2023-05-11T18:04:03.295Z,15.88
2023-05-11T18:06:30.996Z,15.61
2023-05-11T18:08:59.266Z,15.74
2023-05-11T18:11:27.393Z,15.73
2023-05-11T18:13:55.036Z,15.62
2023-05-11T18:16:22.869Z,15.72
2023-05-11T18:18:50.814Z,15.69
2023-05-11T18:21:18.662Z,15.64
2023-05-11T18:23:46.327Z,15.61
2023-05-11T18:26:14.377Z,15.58
2023-05-11T18:28:42.034Z,15.44
2023-05-11T18:31:10.085Z,15.22
2023-05-11T18:33:38.233Z,15.29
2023-05-11T18:36:06.155Z,15.30
2023-05-11T18:38:33.869Z,15.25
2023-05-11T18:41:05.505Z,15.18
2023-05-11T18:43:33.346Z,15.17
2023-05-11T18:46:01.433Z,15.11
2023-05-11T18:48:29.088Z,15.04
2023-05-11T18:50:57.245Z,15.10
2023-05-11T18:53:25.606Z,15.13
2023-05-11T18:55:53.949Z,15.21
2023-05-11T18:58:21.723Z,14.86
2023-05-11T19:00:51.118Z,15.01
2023-05-11T19:03:20.490Z,14.88
2023-05-11T19:05:50.409Z,14.68
2023-05-11T19:08:18.414Z,14.72
2023-05-11T19:10:46.333Z,14.53
2023-05-11T19:13:14.321Z,14.38
2023-05-11T19:15:42.356Z,14.21
2023-05-11T19:18:10.137Z,14.14
2023-05-11T19:20:39.225Z,14.30
2023-05-11T19:23:07.444Z,13.93
2023-05-11T19:25:35.358Z,14.16
2023-05-11T19:28:03.025Z,13.76
2023-05-11T19:30:31.208Z,13.87
2023-05-11T19:32:58.831Z,13.87
2023-05-11T19:35:26.730Z,13.52
2023-05-11T19:37:54.637Z,13.53
2023-05-11T19:42:53.038Z,13.45
2023-05-11T19:45:21.142Z,13.70
2023-05-11T19:47:49.335Z,13.35
2023-05-11T19:50:17.162Z,13.66
2023-05-11T19:52:45.313Z,13.40
2023-05-11T19:55:13.124Z,13.29
2023-05-11T19:57:40.746Z,12.96
2023-05-11T20:00:09.062Z,13.25
2023-05-11T20:02:37.177Z,13.46
2023-05-11T20:05:05.190Z,13.18
2023-05-11T20:07:32.807Z,13.12
2023-05-11T20:10:00.823Z,13.59
2023-05-11T20:12:28.476Z,13.56
2023-05-11T20:14:56.344Z,13.68
2023-05-11T20:17:24.309Z,13.14
2023-05-11T20:19:51.953Z,12.68
2023-05-11T20:22:19.615Z,12.96
2023-05-11T20:24:47.727Z,13.13
2023-05-11T20:27:15.365Z,12.93
2023-05-11T20:29:43.129Z,13.43
2023-05-11T20:32:11.054Z,13.58
2023-05-11T20:34:38.769Z,13.50
2023-05-11T20:37:06.479Z,13.52
2023-05-11T20:39:34.374Z,13.19
2023-05-11T20:42:04.196Z,13.50
2023-05-11T20:44:31.925Z,13.13
2023-05-11T20:46:59.861Z,13.52
2023-05-11T20:49:38.256Z,13.26
2023-05-11T20:52:07.790Z,13.33
2023-05-11T20:54:36.049Z,13.13
2023-05-11T20:57:03.974Z,13.10
2023-05-11T21:02:03.105Z,13.37
2023-05-11T21:04:30.708Z,13.31
2023-05-11T21:06:58.622Z,12.77
2023-05-11T21:09:26.324Z,13.17
2023-05-11T21:11:53.963Z,13.47
2023-05-11T21:14:21.856Z,13.44
2023-05-11T21:16:49.839Z,13.66
2023-05-11T21:19:17.626Z,13.57
2023-05-11T21:21:46.064Z,13.47
2023-05-11T21:24:13.715Z,13.61
2023-05-11T21:26:41.710Z,13.84
2023-05-11T21:29:09.777Z,13.61
2023-05-11T21:31:37.472Z,13.51
2023-05-11T21:34:05.184Z,13.49
2023-05-11T21:36:33.106Z,13.41
2023-05-11T21:39:00.651Z,13.48
2023-05-11T21:41:28.264Z,13.47
2023-05-11T21:43:56.179Z,13.39
2023-05-11T21:46:23.885Z,13.44
2023-05-11T21:48:51.530Z,13.49
2023-05-11T21:51:19.417Z,13.67
2023-05-11T21:53:47.235Z,13.64
2023-05-11T21:56:14.887Z,13.75
2023-05-11T21:58:42.835Z,13.64
2023-05-11T22:01:10.482Z,13.64
2023-05-11T22:03:38.648Z,13.52
2023-05-11T22:06:06.632Z,13.49
2023-05-11T22:08:34.249Z,13.51
2023-05-11T22:11:02.168Z,13.37
2023-05-11T22:13:29.847Z,13.37
2023-05-11T22:15:57.456Z,13.21
2023-05-11T22:18:25.496Z,13.37
2023-05-11T22:20:53.113Z,13.37
2023-05-11T22:23:20.753Z,13.21
2023-05-11T22:25:48.883Z,13.25
2023-05-11T22:28:16.516Z,13.23
2023-05-11T22:30:44.102Z,13.24
2023-05-11T22:33:12.002Z,13.36
2023-05-11T22:35:39.632Z,13.25
2023-05-11T22:38:07.200Z,13.30
2023-05-11T22:40:35.152Z,13.17
2023-05-11T22:43:02.759Z,13.36
2023-05-11T22:45:30.481Z,13.42
2023-05-11T22:47:58.521Z,13.32
2023-05-11T22:50:26.284Z,13.51
2023-05-11T22:52:54.888Z,13.31
2023-05-11T22:55:22.764Z,13.35
2023-05-11T22:57:50.693Z,13.34
2023-05-11T23:00:18.778Z,13.46
2023-05-11T23:02:47.187Z,13.40
2023-05-11T23:05:14.915Z,13.23
2023-05-11T23:07:42.523Z,13.37
2023-05-11T23:10:11.013Z,13.23
2023-05-11T23:12:38.716Z,12.91
2023-05-11T23:15:06.899Z,12.66
2023-05-11T23:17:34.876Z,12.89
2023-05-11T23:20:02.655Z,13.04
2023-05-11T23:22:30.521Z,12.86
2023-05-11T23:24:58.487Z,12.65
2023-05-11T23:27:26.324Z,12.56
2023-05-11T23:29:54.040Z,12.71
2023-05-11T23:32:21.926Z,12.75
2023-05-11T23:34:49.759Z,12.81
2023-05-11T23:37:17.454Z,12.69
2023-05-11T23:39:45.284Z,12.75
2023-05-11T23:42:12.834Z,12.77
2023-05-11T23:44:40.482Z,12.88
2023-05-11T23:47:08.486Z,12.88
2023-05-11T23:49:36.061Z,12.98
2023-05-11T23:52:03.890Z,12.95
2023-05-11T23:54:31.821Z,13.06
2023-05-11T23:56:59.488Z,13.06
2023-05-11T23:59:27.146Z,13.00
